• Join FlightAware (Why Join?)
  • Login
  • US Flag 
09:24AM EDT


 

Airport Tracker/Info


-or-


 

Live Flight TrackerFlight Track Log ✈ N53NW ✈ 06-May-2013 ✈ KBTL - KMIE

Flight Track Log - Related Links

Times and Time Zones

All times are in EDT time to prevent confusion due to time zone crossing. See the N53NW flight status page for this flight to view local times or setup timezone preferences in your user account.

Time Position Orientation Groundspeed Altitude Reporting Facility
EDT Latitude Longitude Course Direction KTS MPH feet Rate Location/Type
07:09PM 42.3203 -85.2142 184° South 232 267 2,600  Level Chicago Center
07:10PM 42.2592 -85.1642 149° Southeast 254 292 6,700 3,480 Climbing Chicago Center
07:11PM 42.1828 -85.1769 187° South 279 321 9,900 2,280 Climbing Chicago Center
07:12PM 42.1008 -85.2006 192° South 300 345 11,500 2,220 Climbing Chicago Center
07:13PM 42.0181 -85.2092 184° South 298 343 14,600 3,000 Climbing Chicago Center
07:14PM 41.9222 -85.2203 185° South 306 352 17,800 1,620 Climbing Chicago Center
07:15PM 41.8688 -85.2715 184° South  Level FlightAware Approximate
07:15PM 41.8261 -85.2300 184° South 340 391 18,000  Level Chicago Center
07:17PM 41.7244 -85.2417 185° South 360 414 18,000  Level Chicago Center
07:18PM 41.6253 -85.2508 184° South 350 403 18,000  Level Chicago Center
07:19PM 41.5286 -85.2608 184° South 343 395 18,000  Level Chicago Center
07:20PM 41.4344 -85.2708 185° South 338 389 18,000  Level Chicago Center
07:21PM 41.3392 -85.2803 184° South 340 391 18,000 -540 Level Chicago Center
07:22PM 41.2414 -85.2908 185° South 348 400 17,000 -1,200 Descending Chicago Center
07:23PM 41.1464 -85.3003 184° South 345 397 15,600 -1,440 Descending Chicago Center
07:25PM 40.9569 -85.3211 185° South 325 374 12,700 -1,500 Descending Indianapolis Center
07:26PM 40.8717 -85.3278 183° South 312 359 11,200 -1,500 Descending Indianapolis Center
07:27PM 40.7867 -85.3172 175° South 308 354 9,700 -1,680 Descending Indianapolis Center
07:28PM 40.7011 -85.3081 175° South 286 329 7,700 -1,920 Descending Chicago Center
07:29PM 40.6228 -85.3003 176° South 263 303 5,700 -1,800 Descending Chicago Center
07:30PM 40.5500 -85.3031 182° South 262 302 4,000 -840 Descending Chicago Center
07:31PM 40.4803 -85.3242 193° South 259 298 4,000 -120 Level Chicago Center
07:32PM 40.4067 -85.3500 195° South 269 310 3,800 -720 Descending Chicago Center
07:33PM 40.3339 -85.4056 210° Southwest 261 300 2,600 -660 Descending Chicago Center
07:34PM 40.2906 -85.4447 215° Southwest 245 282 2,500 -60 Descending Chicago Center
07:36PM 40.3000 -85.4333 43° Northeast 213 245 2,500  Level Indianapolis TRACON
07:38PM 40.3000 -85.4333 270° West 213 245 2,500  Level Indianapolis TRACON
07:40PM 40.3000 -85.4333 270° West 213 245 2,500  Level Indianapolis TRACON
07:42PM 40.3000 -85.4333 270° West 213 245 2,500  Level Indianapolis TRACON